Time;durP1;ratioP1;P1;durP2;ratioP2;P2;SDS_P1;SDS_P2;PMS_P1;PMS_P2;Temp;Humidity;BMP_temperature;BMP_pressure;BME280_temperature;BME280_humidity;BME280_pressure;Samples;Min_cycle;Max_cycle;Signal;HPM_P1;HPM_P2
2023/12/20 00:01:29;;;;;;;11.20;2.60;;;6.30;99.90;;;;;;21010252;28;20059;-40
2023/12/20 00:11:29;;;;;;;12.02;1.80;;;6.30;99.90;;;;;;21007403;28;20040;-40
2023/12/20 00:21:30;;;;;;;13.02;2.40;;;6.30;99.90;;;;;;21009841;28;20040;-40
2023/12/20 00:31:30;;;;;;;9.43;1.80;;;6.20;99.90;;;;;;21008128;28;20128;-40
2023/12/20 00:41:31;;;;;;;9.93;1.83;;;6.20;99.90;;;;;;21006225;28;20038;-39
2023/12/20 00:51:31;;;;;;;16.35;2.25;;;6.20;99.90;;;;;;21005086;28;20037;-42
2023/12/20 01:01:33;;;;;;;9.45;1.83;;;6.20;99.90;;;;;;21007542;28;20058;-41
2023/12/20 01:11:33;;;;;;;10.43;1.88;;;6.30;99.90;;;;;;21014681;28;20067;-42
2023/12/20 01:21:34;;;;;;;10.88;2.22;;;6.30;99.90;;;;;;21017579;28;20040;-41
2023/12/20 01:31:34;;;;;;;12.75;2.30;;;6.40;99.90;;;;;;21013874;28;20051;-41
2023/12/20 01:41:35;;;;;;;13.20;2.17;;;6.50;99.90;;;;;;21015849;28;20544;-41
2023/12/20 01:51:36;;;;;;;18.20;2.75;;;6.50;99.90;;;;;;21012629;28;20127;-41
2023/12/20 02:01:37;;;;;;;23.15;3.28;;;6.50;99.90;;;;;;21010627;28;20044;-41
2023/12/20 02:11:38;;;;;;;15.80;3.38;;;6.70;99.90;;;;;;21003563;28;20505;-41
2023/12/20 02:21:38;;;;;;;15.45;3.53;;;6.90;99.90;;;;;;21013498;28;20098;-41
2023/12/20 02:31:39;;;;;;;18.88;3.28;;;7.00;99.90;;;;;;21005955;28;20123;-41
2023/12/20 02:41:39;;;;;;;20.10;2.33;;;7.30;99.90;;;;;;21011754;28;20341;-41
2023/12/20 02:51:40;;;;;;;14.15;2.22;;;7.20;99.90;;;;;;21010509;28;20048;-39
2023/12/20 03:01:44;;;;;;;21.77;3.20;;;7.10;99.90;;;;;;21004986;28;20043;-41
2023/12/20 03:11:45;;;;;;;21.95;2.20;;;7.20;99.90;;;;;;21007454;28;20101;-41
2023/12/20 03:21:45;;;;;;;16.10;2.53;;;7.50;99.90;;;;;;21011167;28;20080;-40
2023/12/20 03:31:46;;;;;;;22.45;2.90;;;7.50;99.00;;;;;;21007525;28;20503;-40
2023/12/20 03:41:46;;;;;;;12.00;2.70;;;7.50;95.90;;;;;;21007970;28;20419;-40
2023/12/20 03:51:47;;;;;;;17.67;2.72;;;7.40;97.00;;;;;;21003146;28;20047;-40
2023/12/20 04:01:48;;;;;;;11.32;2.28;;;7.50;88.90;;;;;;21003436;28;20071;-40
2023/12/20 04:11:48;;;;;;;16.88;2.45;;;7.40;91.20;;;;;;21005446;28;20062;-40
2023/12/20 04:21:49;;;;;;;17.08;2.50;;;7.40;90.60;;;;;;21004808;28;20507;-41
2023/12/20 04:31:51;;;;;;;18.23;3.38;;;7.50;77.10;;;;;;21008385;28;20443;-40
2023/12/20 04:41:52;;;;;;;10.23;2.30;;;7.60;70.00;;;;;;21003995;28;20512;-40
2023/12/20 04:51:52;;;;;;;16.92;3.05;;;7.50;75.00;;;;;;21000661;28;20707;-40
2023/12/20 05:01:53;;;;;;;15.43;3.55;;;7.40;79.70;;;;;;21000398;28;20040;-40
2023/12/20 05:11:53;;;;;;;19.25;2.67;;;7.50;74.80;;;;;;21004015;28;20173;-40
2023/12/20 05:21:54;;;;;;;14.27;2.03;;;7.60;61.70;;;;;;21002041;28;20048;-40
2023/12/20 05:31:54;;;;;;;18.80;2.40;;;7.50;67.00;;;;;;21001859;28;20032;-40
2023/12/20 05:41:55;;;;;;;14.82;2.65;;;7.60;63.60;;;;;;21001295;28;20052;-40
2023/12/20 05:51:55;;;;;;;17.08;2.83;;;7.80;54.40;;;;;;21011690;28;20044;-41
2023/12/20 06:01:56;;;;;;;14.48;2.42;;;7.80;55.30;;;;;;21013616;28;20882;-41
2023/12/20 06:11:56;;;;;;;18.42;2.55;;;7.80;53.10;;;;;;21009908;28;20097;-41
2023/12/20 06:21:57;;;;;;;12.18;2.55;;;7.80;54.40;;;;;;21014311;28;20077;-39
2023/12/20 06:31:57;;;;;;;14.98;2.45;;;8.00;40.10;;;;;;21010916;28;20073;-39
2023/12/20 06:41:58;;;;;;;15.50;2.33;;;7.90;50.70;;;;;;21011525;28;20743;-39
2023/12/20 06:51:59;;;;;;;16.73;2.60;;;8.00;43.70;;;;;;21009443;28;20131;-41
2023/12/20 07:01:59;;;;;;;20.80;3.42;;;8.10;32.70;;;;;;21010447;28;20075;-39
2023/12/20 07:12:00;;;;;;;18.73;2.47;;;8.10;37.00;;;;;;21011512;28;20071;-39
2023/12/20 07:22:00;;;;;;;17.58;2.50;;;8.10;39.30;;;;;;21006959;28;20040;-39
2023/12/20 07:32:01;;;;;;;13.45;2.75;;;8.20;32.50;;;;;;21013413;28;20048;-40
2023/12/20 07:42:01;;;;;;;17.17;2.30;;;8.30;28.10;;;;;;21013019;28;20075;-40
2023/12/20 07:52:02;;;;;;;24.27;3.58;;;8.30;27.80;;;;;;21013940;28;20043;-40
2023/12/20 08:02:03;;;;;;;16.60;2.70;;;8.30;25.70;;;;;;21013334;28;20071;-40
2023/12/20 08:12:04;;;;;;;16.08;3.05;;;8.30;24.90;;;;;;21008164;28;20457;-40
2023/12/20 08:22:04;;;;;;;17.35;2.58;;;8.30;29.80;;;;;;21010543;28;20039;-40
2023/12/20 08:32:06;;;;;;;16.38;2.97;;;8.30;27.30;;;;;;21012634;28;20036;-40
2023/12/20 08:42:06;;;;;;;12.98;2.35;;;8.30;43.30;;;;;;21007156;28;20051;-39
2023/12/20 08:52:07;;;;;;;17.67;3.13;;;8.40;36.60;;;;;;21007697;28;20451;-40
2023/12/20 09:02:07;;;;;;;15.63;2.45;;;8.60;33.10;;;;;;21004091;28;20044;-39
2023/12/20 09:12:08;;;;;;;17.17;2.43;;;8.70;28.30;;;;;;21005306;28;20040;-40
2023/12/20 09:22:09;;;;;;;13.47;1.90;;;8.70;26.30;;;;;;21008710;28;20044;-40
2023/12/20 09:32:10;;;;;;;14.15;2.95;;;8.90;24.00;;;;;;21020146;28;20508;-40
2023/12/20 09:42:14;;;;;;;18.23;2.35;;;9.00;20.80;;;;;;21018892;28;20049;-40
2023/12/20 09:52:17;;;;;;;22.73;3.35;;;9.10;16.30;;;;;;21018358;28;20036;-40
2023/12/20 10:02:23;;;;;;;18.17;4.32;;;9.00;18.00;;;;;;21021474;28;20048;-40
2023/12/20 10:12:24;;;;;;;14.80;2.57;;;9.10;15.40;;;;;;21021489;28;20048;-39
2023/12/20 10:22:26;;;;;;;16.58;2.38;;;9.30;12.90;;;;;;21019015;28;20100;-40
2023/12/20 10:32:27;;;;;;;18.88;2.65;;;9.30;12.70;;;;;;21019333;28;20561;-40
2023/12/20 10:42:29;;;;;;;13.40;2.33;;;9.40;11.20;;;;;;21018590;28;20450;-39
2023/12/20 10:52:32;;;;;;;15.38;2.40;;;9.40;9.30;;;;;;21016675;28;20147;-39
2023/12/20 11:02:38;;;;;;;11.40;1.75;;;9.80;8.40;;;;;;21016574;28;20521;-39
2023/12/20 11:13:00;;;;;;;13.95;2.10;;;10.10;2.10;;;;;;21017724;28;20036;-39
2023/12/20 11:23:01;;;;;;;12.93;2.25;;;10.40;1.00;;;;;;21012178;28;20044;-39
2023/12/20 11:33:01;;;;;;;15.05;3.55;;;10.30;1.00;;;;;;21014525;28;20055;-39
2023/12/20 11:43:04;;;;;;;13.68;2.20;;;10.00;1.00;;;;;;21012856;28;20055;-39
2023/12/20 11:53:04;;;;;;;9.05;2.28;;;10.10;1.00;;;;;;21013273;28;20144;-39
2023/12/20 12:03:05;;;;;;;15.75;2.72;;;10.10;1.00;;;;;;21009694;28;20543;-39
2023/12/20 12:13:05;;;;;;;15.40;2.30;;;10.10;1.00;;;;;;21010062;28;20044;-39
2023/12/20 12:23:06;;;;;;;16.50;2.15;;;10.10;1.00;;;;;;21007256;28;20040;-39
2023/12/20 12:33:07;;;;;;;16.55;2.35;;;10.00;1.00;;;;;;21005861;28;20927;-39
2023/12/20 12:43:08;;;;;;;10.55;2.05;;;10.10;1.00;;;;;;21007851;28;20597;-39
2023/12/20 12:53:08;;;;;;;13.03;2.47;;;10.10;1.00;;;;;;21008786;28;20040;-39
2023/12/20 13:03:09;;;;;;;11.55;1.90;;;10.00;1.00;;;;;;21024909;28;20458;-39
2023/12/20 13:13:10;;;;;;;9.95;2.55;;;10.00;1.00;;;;;;21024093;28;20039;-39
2023/12/20 13:23:10;;;;;;;13.45;1.92;;;10.00;1.00;;;;;;21021693;28;20039;-39
2023/12/20 13:33:11;;;;;;;13.90;1.92;;;10.00;1.00;;;;;;21022090;28;20132;-39
2023/12/20 13:43:12;;;;;;;11.82;2.03;;;10.00;1.00;;;;;;21020950;28;20198;-38
2023/12/20 13:53:13;;;;;;;13.80;2.00;;;9.90;1.00;;;;;;21021978;28;20028;-39
2023/12/20 14:03:14;;;;;;;11.05;1.90;;;9.90;1.00;;;;;;21017668;28;20044;-39
2023/12/20 14:13:14;;;;;;;10.85;1.90;;;10.00;1.00;;;;;;21016105;28;20778;-39
2023/12/20 14:23:15;;;;;;;12.02;2.10;;;9.90;1.00;;;;;;21017277;28;20079;-39
2023/12/20 14:33:16;;;;;;;12.45;1.70;;;9.80;1.00;;;;;;21017947;28;20051;-38
2023/12/20 14:43:16;;;;;;;13.63;1.92;;;9.90;1.40;;;;;;21014671;28;21003;-39
2023/12/20 14:53:18;;;;;;;12.00;1.70;;;9.80;4.80;;;;;;21013664;28;20060;-39
2023/12/20 15:03:19;;;;;;;13.93;3.00;;;9.80;5.50;;;;;;21015789;28;20455;-38
2023/12/20 15:13:19;;;;;;;14.40;3.30;;;9.70;8.60;;;;;;21011660;28;20033;-39
2023/12/20 15:23:21;;;;;;;23.75;3.15;;;9.60;14.40;;;;;;21013115;28;20143;-39
2023/12/20 15:33:22;;;;;;;13.15;2.00;;;9.70;16.20;;;;;;21012949;28;20055;-39
2023/12/20 15:43:23;;;;;;;13.60;2.65;;;9.80;14.90;;;;;;21006750;28;20083;-39
2023/12/20 15:53:25;;;;;;;13.10;2.40;;;9.70;21.40;;;;;;21009046;28;20254;-39
2023/12/20 16:03:25;;;;;;;9.52;1.98;;;9.60;26.10;;;;;;21002770;28;20083;-39
2023/12/20 16:13:26;;;;;;;22.70;2.38;;;9.60;27.20;;;;;;21000760;28;20040;-39
2023/12/20 16:23:27;;;;;;;10.30;2.03;;;9.60;31.30;;;;;;21002980;28;20044;-39
2023/12/20 16:33:27;;;;;;;10.63;2.13;;;9.60;30.10;;;;;;20999153;28;20040;-40
2023/12/20 16:43:28;;;;;;;12.73;2.63;;;9.60;42.20;;;;;;21004785;28;20105;-38
2023/12/20 16:53:29;;;;;;;14.10;3.05;;;9.40;74.60;;;;;;21003442;28;20041;-39
2023/12/20 17:03:30;;;;;;;8.85;1.58;;;9.30;99.90;;;;;;20995146;28;20557;-39
2023/12/20 17:13:33;;;;;;;13.38;2.40;;;9.20;99.90;;;;;;21000300;28;20043;-39
2023/12/20 17:23:34;;;;;;;13.35;3.25;;;9.20;99.90;;;;;;21009198;28;20037;-39
2023/12/20 17:33:34;;;;;;;13.23;3.13;;;9.30;99.90;;;;;;20999334;28;20037;-40
2023/12/20 17:43:35;;;;;;;16.85;2.78;;;9.40;99.90;;;;;;21002831;28;20045;-41
2023/12/20 17:53:36;;;;;;;15.13;2.45;;;9.40;99.90;;;;;;21013572;28;20040;-39
2023/12/20 18:03:36;;;;;;;17.08;2.80;;;9.40;99.90;;;;;;21007725;28;20051;-39
2023/12/20 18:13:37;;;;;;;13.98;3.10;;;9.40;99.90;;;;;;20996526;28;20040;-39
2023/12/20 18:23:38;;;;;;;13.82;2.42;;;9.40;99.90;;;;;;20998420;28;22135;-39
2023/12/20 18:33:39;;;;;;;10.13;1.95;;;9.40;99.90;;;;;;21011278;28;20605;-41
2023/12/20 18:43:42;;;;;;;15.55;3.72;;;9.40;99.90;;;;;;21004787;28;20052;-39
2023/12/20 18:53:43;;;;;;;10.48;2.25;;;9.40;99.90;;;;;;20991020;28;20124;-38
2023/12/20 19:03:44;;;;;;;12.63;2.72;;;9.40;99.90;;;;;;21010464;28;20048;-39
2023/12/20 19:13:44;;;;;;;14.35;2.30;;;9.40;99.90;;;;;;21007015;28;20044;-39
2023/12/20 19:23:45;;;;;;;15.60;2.13;;;9.50;99.90;;;;;;21004166;28;20051;-39
2023/12/20 19:33:50;;;;;;;12.53;2.40;;;9.50;99.90;;;;;;20999805;28;20079;-40
2023/12/20 19:43:52;;;;;;;16.52;2.17;;;9.40;99.90;;;;;;21001741;28;20051;-40
2023/12/20 19:53:53;;;;;;;12.88;2.20;;;9.50;99.90;;;;;;20979438;28;20036;-39
2023/12/20 20:03:53;;;;;;;11.67;2.23;;;9.50;99.90;;;;;;21001182;28;20089;-39
2023/12/20 20:13:55;;;;;;;10.67;2.00;;;9.60;99.90;;;;;;20991800;28;20044;-40
2023/12/20 20:23:56;;;;;;;14.13;2.20;;;9.60;99.90;;;;;;20998654;28;20458;-40
2023/12/20 20:33:56;;;;;;;11.15;3.15;;;9.60;99.90;;;;;;20994374;28;20091;-39
2023/12/20 20:43:57;;;;;;;11.05;2.80;;;9.70;99.90;;;;;;20996014;28;21407;-40
2023/12/20 20:53:58;;;;;;;12.80;3.45;;;9.80;99.90;;;;;;21002971;28;20514;-39
2023/12/20 21:03:59;;;;;;;15.52;3.45;;;9.90;99.90;;;;;;20991147;28;20129;-39
2023/12/20 21:14:00;;;;;;;9.82;2.38;;;9.90;99.90;;;;;;20992807;28;20447;-40
2023/12/20 21:24:00;;;;;;;14.93;2.80;;;10.00;99.90;;;;;;21011527;28;20040;-39
2023/12/20 21:34:01;;;;;;;9.00;2.25;;;10.10;99.90;;;;;;21013687;28;20469;-39
2023/12/20 21:44:02;;;;;;;12.57;2.60;;;10.10;99.90;;;;;;20999562;28;20550;-40
2023/12/20 21:54:04;;;;;;;7.83;2.83;;;10.10;99.90;;;;;;21007997;28;20090;-40
2023/12/20 22:04:04;;;;;;;10.40;2.25;;;10.20;99.90;;;;;;21015248;28;20514;-40
2023/12/20 22:14:05;;;;;;;9.27;2.20;;;10.20;99.90;;;;;;21007829;28;20077;-40
2023/12/20 22:24:05;;;;;;;10.73;2.30;;;10.20;99.90;;;;;;21010277;28;20059;-40
2023/12/20 22:34:06;;;;;;;11.85;3.35;;;10.20;99.90;;;;;;21005907;28;20109;-39
2023/12/20 22:44:07;;;;;;;18.85;4.45;;;10.30;99.90;;;;;;21008902;28;20523;-39
2023/12/20 22:54:08;;;;;;;11.52;2.00;;;10.40;99.90;;;;;;21008956;28;20066;-40
2023/12/20 23:04:08;;;;;;;7.15;1.60;;;10.40;98.80;;;;;;21006241;28;20450;-40
2023/12/20 23:14:09;;;;;;;8.38;2.00;;;10.40;94.70;;;;;;21000827;28;20048;-40
2023/12/20 23:24:09;;;;;;;11.88;1.77;;;10.50;93.80;;;;;;20999191;28;20078;-40
2023/12/20 23:34:10;;;;;;;13.02;1.90;;;10.50;95.20;;;;;;21003315;28;20040;-40
2023/12/20 23:44:10;;;;;;;12.85;1.63;;;10.50;90.20;;;;;;21005385;28;20049;-40
2023/12/20 23:54:11;;;;;;;7.15;1.75;;;10.50;90.50;;;;;;21005509;28;20040;-40
